sensor_id;sensor_type;location;lat;lon;timestamp;P1;durP1;ratioP1;P2;durP2;ratioP2
35522;SDS011;61478;50.820;4.330;2022-09-17T00:01:06;12.23;;;2.33;;
35522;SDS011;61478;50.820;4.330;2022-09-17T00:03:33;14.05;;;2.25;;
35522;SDS011;61478;50.820;4.330;2022-09-17T00:06:00;14.60;;;2.13;;
35522;SDS011;61478;50.820;4.330;2022-09-17T00:08:31;9.85;;;2.13;;
35522;SDS011;61478;50.820;4.330;2022-09-17T00:11:04;10.02;;;1.92;;
35522;SDS011;61478;50.820;4.330;2022-09-17T00:13:38;10.13;;;2.60;;
35522;SDS011;61478;50.820;4.330;2022-09-17T00:16:04;9.68;;;2.17;;
35522;SDS011;61478;50.820;4.330;2022-09-17T00:18:30;9.18;;;1.83;;
35522;SDS011;61478;50.820;4.330;2022-09-17T00:20:56;16.70;;;2.75;;
35522;SDS011;61478;50.820;4.330;2022-09-17T00:23:22;7.88;;;1.90;;
35522;SDS011;61478;50.820;4.330;2022-09-17T00:25:48;17.45;;;2.83;;
35522;SDS011;61478;50.820;4.330;2022-09-17T00:28:14;10.15;;;2.55;;
35522;SDS011;61478;50.820;4.330;2022-09-17T00:30:41;10.50;;;2.08;;
35522;SDS011;61478;50.820;4.330;2022-09-17T00:33:08;7.38;;;1.85;;
35522;SDS011;61478;50.820;4.330;2022-09-17T00:35:37;13.10;;;2.28;;
35522;SDS011;61478;50.820;4.330;2022-09-17T00:38:03;13.98;;;2.25;;
35522;SDS011;61478;50.820;4.330;2022-09-17T00:40:29;8.07;;;1.75;;
35522;SDS011;61478;50.820;4.330;2022-09-17T00:42:55;9.57;;;2.35;;
35522;SDS011;61478;50.820;4.330;2022-09-17T00:45:21;9.27;;;1.83;;
35522;SDS011;61478;50.820;4.330;2022-09-17T00:47:56;8.52;;;1.83;;
35522;SDS011;61478;50.820;4.330;2022-09-17T00:50:28;8.35;;;2.05;;
35522;SDS011;61478;50.820;4.330;2022-09-17T00:53:11;9.43;;;1.90;;
35522;SDS011;61478;50.820;4.330;2022-09-17T00:55:41;9.18;;;1.70;;
35522;SDS011;61478;50.820;4.330;2022-09-17T00:58:11;5.97;;;1.90;;
35522;SDS011;61478;50.820;4.330;2022-09-17T01:00:41;9.85;;;2.22;;
35522;SDS011;61478;50.820;4.330;2022-09-17T01:03:06;11.90;;;1.83;;
35522;SDS011;61478;50.820;4.330;2022-09-17T01:11:14;10.85;;;1.85;;
35522;SDS011;61478;50.820;4.330;2022-09-17T01:24:28;11.55;;;2.15;;
35522;SDS011;61478;50.820;4.330;2022-09-17T01:30:11;18.20;;;2.85;;
35522;SDS011;61478;50.820;4.330;2022-09-17T01:33:10;9.15;;;1.98;;
35522;SDS011;61478;50.820;4.330;2022-09-17T01:45:51;11.68;;;2.45;;
35522;SDS011;61478;50.820;4.330;2022-09-17T01:48:39;9.57;;;2.15;;
35522;SDS011;61478;50.820;4.330;2022-09-17T01:51:13;11.43;;;2.90;;
35522;SDS011;61478;50.820;4.330;2022-09-17T01:53:54;13.23;;;2.03;;
35522;SDS011;61478;50.820;4.330;2022-09-17T01:56:35;10.50;;;2.28;;
35522;SDS011;61478;50.820;4.330;2022-09-17T01:59:14;10.45;;;3.03;;
35522;SDS011;61478;50.820;4.330;2022-09-17T02:01:52;10.05;;;2.50;;
35522;SDS011;61478;50.820;4.330;2022-09-17T02:04:30;11.02;;;2.75;;
35522;SDS011;61478;50.820;4.330;2022-09-17T02:07:05;9.68;;;2.20;;
35522;SDS011;61478;50.820;4.330;2022-09-17T02:09:44;14.95;;;2.72;;
35522;SDS011;61478;50.820;4.330;2022-09-17T02:12:17;16.63;;;2.67;;
35522;SDS011;61478;50.820;4.330;2022-09-17T02:14:53;12.52;;;2.85;;
35522;SDS011;61478;50.820;4.330;2022-09-17T02:17:24;12.52;;;3.10;;
35522;SDS011;61478;50.820;4.330;2022-09-17T02:19:56;10.82;;;2.58;;
35522;SDS011;61478;50.820;4.330;2022-09-17T02:22:47;12.20;;;2.75;;
35522;SDS011;61478;50.820;4.330;2022-09-17T02:25:25;14.60;;;3.30;;
35522;SDS011;61478;50.820;4.330;2022-09-17T02:28:03;18.52;;;2.80;;
35522;SDS011;61478;50.820;4.330;2022-09-17T02:30:41;15.85;;;3.22;;
35522;SDS011;61478;50.820;4.330;2022-09-17T02:33:08;15.82;;;2.75;;
35522;SDS011;61478;50.820;4.330;2022-09-17T02:35:38;13.80;;;2.58;;
35522;SDS011;61478;50.820;4.330;2022-09-17T02:38:04;6.95;;;1.98;;
35522;SDS011;61478;50.820;4.330;2022-09-17T02:40:31;13.27;;;2.85;;
35522;SDS011;61478;50.820;4.330;2022-09-17T02:48:32;11.07;;;2.40;;
35522;SDS011;61478;50.820;4.330;2022-09-17T02:54:30;13.57;;;2.97;;
35522;SDS011;61478;50.820;4.330;2022-09-17T02:57:08;15.80;;;4.03;;
35522;SDS011;61478;50.820;4.330;2022-09-17T02:59:45;12.27;;;2.50;;
35522;SDS011;61478;50.820;4.330;2022-09-17T03:02:34;14.65;;;2.63;;
35522;SDS011;61478;50.820;4.330;2022-09-17T03:05:05;11.05;;;2.70;;
35522;SDS011;61478;50.820;4.330;2022-09-17T03:07:33;8.88;;;2.25;;
35522;SDS011;61478;50.820;4.330;2022-09-17T03:10:00;9.13;;;1.70;;
35522;SDS011;61478;50.820;4.330;2022-09-17T03:12:26;10.52;;;2.90;;
35522;SDS011;61478;50.820;4.330;2022-09-17T03:14:52;11.50;;;2.45;;
35522;SDS011;61478;50.820;4.330;2022-09-17T03:17:18;13.38;;;2.85;;
35522;SDS011;61478;50.820;4.330;2022-09-17T03:19:43;11.50;;;2.97;;
35522;SDS011;61478;50.820;4.330;2022-09-17T03:22:10;15.20;;;2.78;;
35522;SDS011;61478;50.820;4.330;2022-09-17T03:24:36;13.25;;;2.80;;
35522;SDS011;61478;50.820;4.330;2022-09-17T03:27:02;10.52;;;2.03;;
35522;SDS011;61478;50.820;4.330;2022-09-17T03:29:28;15.88;;;2.80;;
35522;SDS011;61478;50.820;4.330;2022-09-17T03:31:54;10.10;;;2.80;;
35522;SDS011;61478;50.820;4.330;2022-09-17T03:34:20;17.58;;;2.90;;
35522;SDS011;61478;50.820;4.330;2022-09-17T03:36:46;16.23;;;2.53;;
35522;SDS011;61478;50.820;4.330;2022-09-17T03:39:12;10.40;;;2.58;;
35522;SDS011;61478;50.820;4.330;2022-09-17T03:41:38;18.00;;;3.08;;
35522;SDS011;61478;50.820;4.330;2022-09-17T03:44:04;14.98;;;3.35;;
35522;SDS011;61478;50.820;4.330;2022-09-17T03:46:30;12.63;;;2.60;;
35522;SDS011;61478;50.820;4.330;2022-09-17T03:48:56;15.18;;;2.50;;
35522;SDS011;61478;50.820;4.330;2022-09-17T03:51:22;13.77;;;3.00;;
35522;SDS011;61478;50.820;4.330;2022-09-17T03:53:48;14.27;;;2.83;;
35522;SDS011;61478;50.820;4.330;2022-09-17T03:56:14;11.85;;;2.88;;
35522;SDS011;61478;50.820;4.330;2022-09-17T03:58:40;10.55;;;2.67;;
35522;SDS011;61478;50.820;4.330;2022-09-17T04:01:06;14.00;;;2.60;;
35522;SDS011;61478;50.820;4.330;2022-09-17T04:03:32;13.63;;;3.00;;
35522;SDS011;61478;50.820;4.330;2022-09-17T04:05:58;15.73;;;3.28;;
35522;SDS011;61478;50.820;4.330;2022-09-17T04:08:24;12.73;;;2.83;;
35522;SDS011;61478;50.820;4.330;2022-09-17T04:10:50;11.27;;;2.72;;
35522;SDS011;61478;50.820;4.330;2022-09-17T04:13:16;20.65;;;3.17;;
35522;SDS011;61478;50.820;4.330;2022-09-17T04:15:43;13.57;;;3.28;;
35522;SDS011;61478;50.820;4.330;2022-09-17T04:18:10;14.65;;;3.13;;
35522;SDS011;61478;50.820;4.330;2022-09-17T04:20:36;9.23;;;3.22;;
35522;SDS011;61478;50.820;4.330;2022-09-17T04:23:02;14.52;;;3.40;;
35522;SDS011;61478;50.820;4.330;2022-09-17T04:25:29;17.65;;;3.15;;
35522;SDS011;61478;50.820;4.330;2022-09-17T04:27:55;21.55;;;3.03;;
35522;SDS011;61478;50.820;4.330;2022-09-17T04:30:21;19.58;;;3.65;;
35522;SDS011;61478;50.820;4.330;2022-09-17T04:32:47;15.50;;;3.53;;
35522;SDS011;61478;50.820;4.330;2022-09-17T04:35:13;16.38;;;3.53;;
35522;SDS011;61478;50.820;4.330;2022-09-17T04:37:39;13.93;;;3.08;;
35522;SDS011;61478;50.820;4.330;2022-09-17T04:40:05;14.82;;;3.90;;
35522;SDS011;61478;50.820;4.330;2022-09-17T04:42:31;16.35;;;3.13;;
35522;SDS011;61478;50.820;4.330;2022-09-17T04:44:58;16.10;;;3.25;;
35522;SDS011;61478;50.820;4.330;2022-09-17T04:47:24;30.38;;;4.03;;
35522;SDS011;61478;50.820;4.330;2022-09-17T04:49:49;17.92;;;3.67;;
35522;SDS011;61478;50.820;4.330;2022-09-17T04:52:16;15.65;;;3.05;;
35522;SDS011;61478;50.820;4.330;2022-09-17T04:54:42;17.48;;;3.17;;
35522;SDS011;61478;50.820;4.330;2022-09-17T04:57:07;22.85;;;3.67;;
35522;SDS011;61478;50.820;4.330;2022-09-17T04:59:33;18.38;;;3.60;;
35522;SDS011;61478;50.820;4.330;2022-09-17T05:01:59;18.90;;;3.70;;
35522;SDS011;61478;50.820;4.330;2022-09-17T05:04:25;17.33;;;3.70;;
35522;SDS011;61478;50.820;4.330;2022-09-17T05:06:51;27.77;;;4.10;;
35522;SDS011;61478;50.820;4.330;2022-09-17T05:09:17;20.13;;;4.15;;
35522;SDS011;61478;50.820;4.330;2022-09-17T05:11:42;21.33;;;3.65;;
35522;SDS011;61478;50.820;4.330;2022-09-17T05:14:08;13.18;;;3.40;;
35522;SDS011;61478;50.820;4.330;2022-09-17T05:16:34;19.58;;;4.00;;
35522;SDS011;61478;50.820;4.330;2022-09-17T05:19:00;22.52;;;3.85;;
35522;SDS011;61478;50.820;4.330;2022-09-17T05:21:26;17.65;;;4.00;;
35522;SDS011;61478;50.820;4.330;2022-09-17T05:23:52;17.30;;;3.42;;
35522;SDS011;61478;50.820;4.330;2022-09-17T05:26:18;16.70;;;3.38;;
35522;SDS011;61478;50.820;4.330;2022-09-17T05:28:44;18.02;;;2.95;;
35522;SDS011;61478;50.820;4.330;2022-09-17T05:31:10;15.27;;;3.22;;
35522;SDS011;61478;50.820;4.330;2022-09-17T05:33:36;19.02;;;3.47;;
35522;SDS011;61478;50.820;4.330;2022-09-17T05:36:02;12.93;;;2.58;;
35522;SDS011;61478;50.820;4.330;2022-09-17T05:38:28;18.70;;;3.83;;
35522;SDS011;61478;50.820;4.330;2022-09-17T05:40:55;17.85;;;3.42;;
35522;SDS011;61478;50.820;4.330;2022-09-17T05:43:21;19.55;;;3.53;;
35522;SDS011;61478;50.820;4.330;2022-09-17T05:45:48;15.82;;;3.33;;
35522;SDS011;61478;50.820;4.330;2022-09-17T05:48:14;16.35;;;3.70;;
35522;SDS011;61478;50.820;4.330;2022-09-17T05:50:40;20.40;;;4.25;;
35522;SDS011;61478;50.820;4.330;2022-09-17T05:53:07;25.48;;;5.93;;
35522;SDS011;61478;50.820;4.330;2022-09-17T05:55:36;27.80;;;4.15;;
35522;SDS011;61478;50.820;4.330;2022-09-17T05:58:09;18.60;;;3.92;;
35522;SDS011;61478;50.820;4.330;2022-09-17T06:00:42;18.23;;;4.78;;
35522;SDS011;61478;50.820;4.330;2022-09-17T06:03:11;20.40;;;3.80;;
35522;SDS011;61478;50.820;4.330;2022-09-17T06:05:38;19.38;;;3.88;;
35522;SDS011;61478;50.820;4.330;2022-09-17T06:08:04;15.85;;;3.88;;
35522;SDS011;61478;50.820;4.330;2022-09-17T06:10:30;21.23;;;3.72;;
35522;SDS011;61478;50.820;4.330;2022-09-17T06:12:56;16.35;;;3.47;;
35522;SDS011;61478;50.820;4.330;2022-09-17T06:15:23;12.27;;;3.00;;
35522;SDS011;61478;50.820;4.330;2022-09-17T06:17:50;13.70;;;4.03;;
35522;SDS011;61478;50.820;4.330;2022-09-17T06:20:17;11.52;;;2.90;;
35522;SDS011;61478;50.820;4.330;2022-09-17T06:22:45;16.08;;;3.03;;
35522;SDS011;61478;50.820;4.330;2022-09-17T06:25:11;15.57;;;3.63;;
35522;SDS011;61478;50.820;4.330;2022-09-17T06:27:37;14.82;;;3.10;;
35522;SDS011;61478;50.820;4.330;2022-09-17T06:30:04;14.68;;;3.33;;
35522;SDS011;61478;50.820;4.330;2022-09-17T06:32:31;16.00;;;3.33;;
35522;SDS011;61478;50.820;4.330;2022-09-17T06:34:57;18.20;;;3.65;;
35522;SDS011;61478;50.820;4.330;2022-09-17T06:37:26;17.63;;;3.10;;
35522;SDS011;61478;50.820;4.330;2022-09-17T06:39:56;14.45;;;3.42;;
35522;SDS011;61478;50.820;4.330;2022-09-17T06:42:23;22.67;;;4.07;;
35522;SDS011;61478;50.820;4.330;2022-09-17T06:44:50;15.00;;;2.60;;
35522;SDS011;61478;50.820;4.330;2022-09-17T06:47:16;13.43;;;3.85;;
35522;SDS011;61478;50.820;4.330;2022-09-17T06:49:42;15.80;;;3.67;;
35522;SDS011;61478;50.820;4.330;2022-09-17T06:52:08;20.52;;;3.17;;
35522;SDS011;61478;50.820;4.330;2022-09-17T06:54:34;14.18;;;3.20;;
35522;SDS011;61478;50.820;4.330;2022-09-17T06:57:00;15.80;;;2.95;;
35522;SDS011;61478;50.820;4.330;2022-09-17T06:59:26;18.92;;;3.38;;
35522;SDS011;61478;50.820;4.330;2022-09-17T07:01:52;15.18;;;3.15;;
35522;SDS011;61478;50.820;4.330;2022-09-17T07:04:18;20.35;;;4.43;;
35522;SDS011;61478;50.820;4.330;2022-09-17T07:06:44;18.05;;;3.85;;
35522;SDS011;61478;50.820;4.330;2022-09-17T07:09:11;17.98;;;3.30;;
35522;SDS011;61478;50.820;4.330;2022-09-17T07:11:37;14.05;;;3.80;;
35522;SDS011;61478;50.820;4.330;2022-09-17T07:14:03;17.02;;;3.13;;
35522;SDS011;61478;50.820;4.330;2022-09-17T07:16:30;19.00;;;4.75;;
35522;SDS011;61478;50.820;4.330;2022-09-17T07:19:00;11.95;;;2.78;;
35522;SDS011;61478;50.820;4.330;2022-09-17T07:21:28;15.77;;;3.03;;
35522;SDS011;61478;50.820;4.330;2022-09-17T07:23:54;17.65;;;3.05;;
35522;SDS011;61478;50.820;4.330;2022-09-17T07:26:20;17.65;;;4.03;;
35522;SDS011;61478;50.820;4.330;2022-09-17T07:28:46;19.42;;;3.35;;
35522;SDS011;61478;50.820;4.330;2022-09-17T07:31:12;12.63;;;3.15;;
35522;SDS011;61478;50.820;4.330;2022-09-17T07:33:38;14.80;;;2.80;;
35522;SDS011;61478;50.820;4.330;2022-09-17T07:36:06;15.30;;;3.20;;
35522;SDS011;61478;50.820;4.330;2022-09-17T07:38:34;16.67;;;2.97;;
35522;SDS011;61478;50.820;4.330;2022-09-17T07:41:04;10.23;;;2.63;;
35522;SDS011;61478;50.820;4.330;2022-09-17T07:43:37;16.27;;;3.25;;
35522;SDS011;61478;50.820;4.330;2022-09-17T07:46:04;20.92;;;3.53;;
35522;SDS011;61478;50.820;4.330;2022-09-17T07:48:31;12.77;;;2.80;;
35522;SDS011;61478;50.820;4.330;2022-09-17T07:50:58;13.50;;;3.67;;
35522;SDS011;61478;50.820;4.330;2022-09-17T07:53:24;13.20;;;3.15;;
35522;SDS011;61478;50.820;4.330;2022-09-17T07:55:50;12.60;;;2.75;;
35522;SDS011;61478;50.820;4.330;2022-09-17T07:58:17;16.02;;;3.85;;
35522;SDS011;61478;50.820;4.330;2022-09-17T08:00:43;11.93;;;3.83;;
35522;SDS011;61478;50.820;4.330;2022-09-17T08:03:09;13.65;;;3.50;;
35522;SDS011;61478;50.820;4.330;2022-09-17T08:05:35;19.83;;;3.50;;
35522;SDS011;61478;50.820;4.330;2022-09-17T08:08:01;13.88;;;3.17;;
35522;SDS011;61478;50.820;4.330;2022-09-17T08:10:27;15.73;;;2.30;;
35522;SDS011;61478;50.820;4.330;2022-09-17T08:12:54;15.90;;;3.10;;
35522;SDS011;61478;50.820;4.330;2022-09-17T08:15:21;11.55;;;2.60;;
35522;SDS011;61478;50.820;4.330;2022-09-17T08:17:48;16.52;;;2.95;;
35522;SDS011;61478;50.820;4.330;2022-09-17T08:20:15;11.60;;;2.58;;
35522;SDS011;61478;50.820;4.330;2022-09-17T08:22:41;14.90;;;3.28;;
35522;SDS011;61478;50.820;4.330;2022-09-17T08:25:08;11.35;;;2.28;;
35522;SDS011;61478;50.820;4.330;2022-09-17T08:27:34;21.38;;;2.85;;
35522;SDS011;61478;50.820;4.330;2022-09-17T08:30:03;13.77;;;3.03;;
35522;SDS011;61478;50.820;4.330;2022-09-17T08:32:30;12.50;;;2.35;;
35522;SDS011;61478;50.820;4.330;2022-09-17T08:34:56;8.90;;;2.17;;
35522;SDS011;61478;50.820;4.330;2022-09-17T08:37:22;12.50;;;2.17;;
35522;SDS011;61478;50.820;4.330;2022-09-17T08:39:48;9.75;;;2.08;;
35522;SDS011;61478;50.820;4.330;2022-09-17T08:42:26;12.20;;;3.05;;
35522;SDS011;61478;50.820;4.330;2022-09-17T08:45:04;14.25;;;2.80;;
35522;SDS011;61478;50.820;4.330;2022-09-17T08:47:36;15.48;;;3.05;;
35522;SDS011;61478;50.820;4.330;2022-09-17T08:50:12;11.75;;;2.17;;
35522;SDS011;61478;50.820;4.330;2022-09-17T09:01:30;7.30;;;1.77;;
35522;SDS011;61478;50.820;4.330;2022-09-17T09:06:45;15.02;;;3.10;;
35522;SDS011;61478;50.820;4.330;2022-09-17T09:09:29;12.40;;;2.00;;
35522;SDS011;61478;50.820;4.330;2022-09-17T09:12:03;10.82;;;2.30;;
35522;SDS011;61478;50.820;4.330;2022-09-17T09:17:56;9.98;;;2.47;;
35522;SDS011;61478;50.820;4.330;2022-09-17T09:20:48;11.68;;;2.38;;
35522;SDS011;61478;50.820;4.330;2022-09-17T09:23:26;13.52;;;2.53;;
35522;SDS011;61478;50.820;4.330;2022-09-17T09:26:18;8.90;;;1.95;;
35522;SDS011;61478;50.820;4.330;2022-09-17T09:28:49;11.40;;;2.38;;
35522;SDS011;61478;50.820;4.330;2022-09-17T09:31:36;14.43;;;5.05;;
35522;SDS011;61478;50.820;4.330;2022-09-17T09:34:12;12.38;;;2.92;;
35522;SDS011;61478;50.820;4.330;2022-09-17T09:36:40;7.75;;;2.38;;
35522;SDS011;61478;50.820;4.330;2022-09-17T09:39:28;6.50;;;2.40;;
35522;SDS011;61478;50.820;4.330;2022-09-17T09:42:08;7.13;;;2.13;;
35522;SDS011;61478;50.820;4.330;2022-09-17T09:44:40;5.45;;;1.67;;
35522;SDS011;61478;50.820;4.330;2022-09-17T09:50:24;15.20;;;7.40;;
35522;SDS011;61478;50.820;4.330;2022-09-17T09:54:09;4.97;;;1.77;;
35522;SDS011;61478;50.820;4.330;2022-09-17T09:59:27;6.72;;;2.10;;
35522;SDS011;61478;50.820;4.330;2022-09-17T10:01:57;6.65;;;1.90;;
35522;SDS011;61478;50.820;4.330;2022-09-17T10:04:27;12.38;;;2.08;;
35522;SDS011;61478;50.820;4.330;2022-09-17T10:07:06;7.40;;;1.60;;
35522;SDS011;61478;50.820;4.330;2022-09-17T10:09:37;6.25;;;1.60;;
35522;SDS011;61478;50.820;4.330;2022-09-17T10:14:44;9.23;;;1.75;;
35522;SDS011;61478;50.820;4.330;2022-09-17T10:17:31;6.03;;;1.50;;
35522;SDS011;61478;50.820;4.330;2022-09-17T10:22:32;5.55;;;1.85;;
35522;SDS011;61478;50.820;4.330;2022-09-17T10:28:03;6.25;;;1.83;;
35522;SDS011;61478;50.820;4.330;2022-09-17T10:31:00;6.93;;;1.13;;
35522;SDS011;61478;50.820;4.330;2022-09-17T10:33:33;3.85;;;1.55;;
35522;SDS011;61478;50.820;4.330;2022-09-17T10:36:13;5.85;;;1.38;;
35522;SDS011;61478;50.820;4.330;2022-09-17T10:38:43;4.20;;;1.55;;
35522;SDS011;61478;50.820;4.330;2022-09-17T10:41:21;3.00;;;1.17;;
35522;SDS011;61478;50.820;4.330;2022-09-17T10:43:54;6.85;;;1.60;;
35522;SDS011;61478;50.820;4.330;2022-09-17T10:46:27;6.88;;;1.38;;
35522;SDS011;61478;50.820;4.330;2022-09-17T10:49:04;4.78;;;1.55;;
35522;SDS011;61478;50.820;4.330;2022-09-17T10:52:03;6.88;;;1.45;;
35522;SDS011;61478;50.820;4.330;2022-09-17T10:57:09;6.63;;;0.90;;
35522;SDS011;61478;50.820;4.330;2022-09-17T11:08:11;5.97;;;1.77;;
35522;SDS011;61478;50.820;4.330;2022-09-17T11:11:10;5.93;;;1.50;;
35522;SDS011;61478;50.820;4.330;2022-09-17T11:14:06;5.93;;;1.63;;
35522;SDS011;61478;50.820;4.330;2022-09-17T11:17:23;9.90;;;3.40;;
35522;SDS011;61478;50.820;4.330;2022-09-17T11:22:57;3.55;;;1.35;;
35522;SDS011;61478;50.820;4.330;2022-09-17T11:28:27;5.90;;;1.50;;
35522;SDS011;61478;50.820;4.330;2022-09-17T11:31:29;9.25;;;2.60;;
35522;SDS011;61478;50.820;4.330;2022-09-17T11:36:50;7.25;;;3.10;;
35522;SDS011;61478;50.820;4.330;2022-09-17T11:39:42;11.60;;;3.75;;
35522;SDS011;61478;50.820;4.330;2022-09-17T11:42:27;6.28;;;1.77;;
35522;SDS011;61478;50.820;4.330;2022-09-17T11:45:05;7.10;;;2.10;;
35522;SDS011;61478;50.820;4.330;2022-09-17T11:47:48;7.75;;;2.83;;
35522;SDS011;61478;50.820;4.330;2022-09-17T11:50:34;5.82;;;1.95;;
35522;SDS011;61478;50.820;4.330;2022-09-17T11:53:28;10.15;;;2.20;;
35522;SDS011;61478;50.820;4.330;2022-09-17T11:56:28;5.88;;;1.80;;
35522;SDS011;61478;50.820;4.330;2022-09-17T12:10:15;7.40;;;2.03;;
35522;SDS011;61478;50.820;4.330;2022-09-17T12:12:54;10.73;;;2.60;;
35522;SDS011;61478;50.820;4.330;2022-09-17T12:15:31;9.43;;;2.72;;
35522;SDS011;61478;50.820;4.330;2022-09-17T12:20:41;16.33;;;4.40;;
35522;SDS011;61478;50.820;4.330;2022-09-17T12:23:15;10.70;;;2.45;;
35522;SDS011;61478;50.820;4.330;2022-09-17T12:26:03;15.18;;;3.88;;
35522;SDS011;61478;50.820;4.330;2022-09-17T12:47:56;15.65;;;3.63;;
35522;SDS011;61478;50.820;4.330;2022-09-17T12:50:37;14.93;;;3.15;;
35522;SDS011;61478;50.820;4.330;2022-09-17T12:54:21;13.45;;;3.03;;
35522;SDS011;61478;50.820;4.330;2022-09-17T12:59:12;12.52;;;2.95;;
35522;SDS011;61478;50.820;4.330;2022-09-17T13:07:47;11.02;;;3.08;;
35522;SDS011;61478;50.820;4.330;2022-09-17T13:10:28;15.07;;;5.78;;
35522;SDS011;61478;50.820;4.330;2022-09-17T13:13:34;15.57;;;3.83;;
35522;SDS011;61478;50.820;4.330;2022-09-17T13:19:00;17.15;;;4.00;;
35522;SDS011;61478;50.820;4.330;2022-09-17T13:22:12;12.90;;;3.35;;
35522;SDS011;61478;50.820;4.330;2022-09-17T13:24:22;17.30;;;3.33;;
35522;SDS011;61478;50.820;4.330;2022-09-17T13:26:51;13.63;;;3.30;;
35522;SDS011;61478;50.820;4.330;2022-09-17T13:40:30;16.83;;;4.18;;
35522;SDS011;61478;50.820;4.330;2022-09-17T13:48:27;17.90;;;3.63;;
35522;SDS011;61478;50.820;4.330;2022-09-17T13:50:55;14.90;;;4.10;;
35522;SDS011;61478;50.820;4.330;2022-09-17T13:53:25;19.38;;;5.20;;
35522;SDS011;61478;50.820;4.330;2022-09-17T13:55:55;13.98;;;2.88;;
35522;SDS011;61478;50.820;4.330;2022-09-17T13:58:26;12.73;;;2.30;;
35522;SDS011;61478;50.820;4.330;2022-09-17T14:08:49;13.77;;;2.28;;
35522;SDS011;61478;50.820;4.330;2022-09-17T14:14:14;11.50;;;2.40;;
35522;SDS011;61478;50.820;4.330;2022-09-17T14:17:14;13.65;;;2.22;;
35522;SDS011;61478;50.820;4.330;2022-09-17T14:20:18;10.53;;;1.90;;
35522;SDS011;61478;50.820;4.330;2022-09-17T14:22:56;10.95;;;2.47;;
35522;SDS011;61478;50.820;4.330;2022-09-17T14:25:32;12.77;;;2.60;;
35522;SDS011;61478;50.820;4.330;2022-09-17T14:28:09;14.07;;;2.25;;
35522;SDS011;61478;50.820;4.330;2022-09-17T14:31:01;8.90;;;2.53;;
35522;SDS011;61478;50.820;4.330;2022-09-17T14:33:36;4.60;;;2.00;;
35522;SDS011;61478;50.820;4.330;2022-09-17T14:36:07;13.15;;;3.05;;
35522;SDS011;61478;50.820;4.330;2022-09-17T14:38:43;9.45;;;1.83;;
35522;SDS011;61478;50.820;4.330;2022-09-17T14:43:59;4.05;;;1.33;;
35522;SDS011;61478;50.820;4.330;2022-09-17T14:46:34;4.40;;;1.23;;
35522;SDS011;61478;50.820;4.330;2022-09-17T14:49:17;4.57;;;1.48;;
35522;SDS011;61478;50.820;4.330;2022-09-17T14:51:45;7.82;;;2.00;;
35522;SDS011;61478;50.820;4.330;2022-09-17T14:54:17;11.27;;;2.28;;
35522;SDS011;61478;50.820;4.330;2022-09-17T14:56:55;2.92;;;1.42;;
35522;SDS011;61478;50.820;4.330;2022-09-17T15:02:20;11.63;;;2.00;;
35522;SDS011;61478;50.820;4.330;2022-09-17T15:04:57;14.15;;;2.65;;
35522;SDS011;61478;50.820;4.330;2022-09-17T15:07:32;8.15;;;2.00;;
35522;SDS011;61478;50.820;4.330;2022-09-17T15:10:10;8.30;;;2.70;;
35522;SDS011;61478;50.820;4.330;2022-09-17T15:12:42;6.72;;;2.42;;
35522;SDS011;61478;50.820;4.330;2022-09-17T15:15:17;8.98;;;2.38;;
35522;SDS011;61478;50.820;4.330;2022-09-17T15:17:48;6.63;;;2.05;;
35522;SDS011;61478;50.820;4.330;2022-09-17T15:20:27;6.30;;;1.95;;
35522;SDS011;61478;50.820;4.330;2022-09-17T15:25:41;12.30;;;2.03;;
35522;SDS011;61478;50.820;4.330;2022-09-17T15:28:22;6.88;;;1.73;;
35522;SDS011;61478;50.820;4.330;2022-09-17T15:30:59;8.88;;;2.17;;
35522;SDS011;61478;50.820;4.330;2022-09-17T15:33:26;9.68;;;2.00;;
35522;SDS011;61478;50.820;4.330;2022-09-17T15:36:00;6.72;;;1.50;;
35522;SDS011;61478;50.820;4.330;2022-09-17T15:38:37;6.85;;;1.58;;
35522;SDS011;61478;50.820;4.330;2022-09-17T15:44:32;13.93;;;1.98;;
35522;SDS011;61478;50.820;4.330;2022-09-17T15:46:52;10.20;;;1.92;;
35522;SDS011;61478;50.820;4.330;2022-09-17T15:49:31;6.95;;;1.42;;
35522;SDS011;61478;50.820;4.330;2022-09-17T15:54:57;7.82;;;1.42;;
35522;SDS011;61478;50.820;4.330;2022-09-17T15:57:24;2.55;;;1.13;;
35522;SDS011;61478;50.820;4.330;2022-09-17T15:59:52;4.43;;;1.17;;
35522;SDS011;61478;50.820;4.330;2022-09-17T16:07:43;3.50;;;1.42;;
35522;SDS011;61478;50.820;4.330;2022-09-17T16:10:11;6.07;;;1.35;;
35522;SDS011;61478;50.820;4.330;2022-09-17T16:12:39;4.60;;;1.25;;
35522;SDS011;61478;50.820;4.330;2022-09-17T16:15:06;6.00;;;1.15;;
35522;SDS011;61478;50.820;4.330;2022-09-17T16:20:13;9.93;;;2.28;;
35522;SDS011;61478;50.820;4.330;2022-09-17T16:22:46;6.40;;;1.33;;
35522;SDS011;61478;50.820;4.330;2022-09-17T16:25:12;6.32;;;1.48;;
35522;SDS011;61478;50.820;4.330;2022-09-17T16:30:28;6.30;;;1.35;;
35522;SDS011;61478;50.820;4.330;2022-09-17T16:32:55;5.47;;;1.52;;
35522;SDS011;61478;50.820;4.330;2022-09-17T16:35:23;6.38;;;1.55;;
35522;SDS011;61478;50.820;4.330;2022-09-17T16:37:51;7.88;;;2.58;;
35522;SDS011;61478;50.820;4.330;2022-09-17T16:40:19;6.95;;;1.45;;
35522;SDS011;61478;50.820;4.330;2022-09-17T16:42:46;7.43;;;1.70;;
35522;SDS011;61478;50.820;4.330;2022-09-17T16:45:13;7.72;;;1.63;;
35522;SDS011;61478;50.820;4.330;2022-09-17T16:47:40;6.60;;;1.70;;
35522;SDS011;61478;50.820;4.330;2022-09-17T16:50:08;9.20;;;1.88;;
35522;SDS011;61478;50.820;4.330;2022-09-17T16:52:36;5.53;;;1.80;;
35522;SDS011;61478;50.820;4.330;2022-09-17T16:55:08;8.15;;;3.60;;
35522;SDS011;61478;50.820;4.330;2022-09-17T16:57:37;4.35;;;1.75;;
35522;SDS011;61478;50.820;4.330;2022-09-17T17:00:07;9.38;;;2.10;;
35522;SDS011;61478;50.820;4.330;2022-09-17T17:02:37;9.32;;;1.90;;
35522;SDS011;61478;50.820;4.330;2022-09-17T17:05:06;4.35;;;1.80;;
35522;SDS011;61478;50.820;4.330;2022-09-17T17:07:35;10.88;;;2.20;;
35522;SDS011;61478;50.820;4.330;2022-09-17T17:10:04;8.85;;;2.35;;
35522;SDS011;61478;50.820;4.330;2022-09-17T17:12:35;13.40;;;3.22;;
35522;SDS011;61478;50.820;4.330;2022-09-17T17:15:05;9.63;;;2.10;;
35522;SDS011;61478;50.820;4.330;2022-09-17T17:17:36;8.65;;;2.72;;
35522;SDS011;61478;50.820;4.330;2022-09-17T17:20:03;11.20;;;2.83;;
35522;SDS011;61478;50.820;4.330;2022-09-17T17:22:34;9.65;;;2.47;;
35522;SDS011;61478;50.820;4.330;2022-09-17T17:25:02;9.32;;;2.50;;
35522;SDS011;61478;50.820;4.330;2022-09-17T17:27:32;9.93;;;2.20;;
35522;SDS011;61478;50.820;4.330;2022-09-17T17:30:03;8.40;;;2.22;;
35522;SDS011;61478;50.820;4.330;2022-09-17T17:32:34;12.23;;;3.00;;
35522;SDS011;61478;50.820;4.330;2022-09-17T17:35:04;10.88;;;3.72;;
35522;SDS011;61478;50.820;4.330;2022-09-17T17:37:34;6.00;;;2.20;;
35522;SDS011;61478;50.820;4.330;2022-09-17T17:40:02;14.85;;;2.90;;
35522;SDS011;61478;50.820;4.330;2022-09-17T17:42:33;10.45;;;2.75;;
35522;SDS011;61478;50.820;4.330;2022-09-17T17:45:03;14.65;;;3.35;;
35522;SDS011;61478;50.820;4.330;2022-09-17T17:47:33;8.55;;;2.50;;
35522;SDS011;61478;50.820;4.330;2022-09-17T17:50:02;8.30;;;2.78;;
35522;SDS011;61478;50.820;4.330;2022-09-17T17:52:37;12.43;;;2.38;;
35522;SDS011;61478;50.820;4.330;2022-09-17T17:55:15;56.85;;;41.60;;
35522;SDS011;61478;50.820;4.330;2022-09-17T17:57:44;43.50;;;24.05;;
35522;SDS011;61478;50.820;4.330;2022-09-17T18:00:21;14.55;;;3.67;;
35522;SDS011;61478;50.820;4.330;2022-09-17T18:02:50;11.88;;;3.08;;
35522;SDS011;61478;50.820;4.330;2022-09-17T18:05:17;19.60;;;6.53;;
35522;SDS011;61478;50.820;4.330;2022-09-17T18:07:46;14.40;;;3.67;;
35522;SDS011;61478;50.820;4.330;2022-09-17T18:10:15;14.45;;;3.28;;